createdAt,value
2023-04-24T00:00:04.245Z,99141.50
2023-04-24T00:01:08.463Z,99138.56
2023-04-24T00:01:50.286Z,99145.50
2023-04-24T00:02:32.902Z,99138.34
2023-04-24T00:03:14.334Z,99138.78
2023-04-24T00:03:55.934Z,99141.72
2023-04-24T00:04:37.285Z,99140.25
2023-04-24T00:05:25.236Z,99135.44
2023-04-24T00:06:20.204Z,99126.59
2023-04-24T00:07:14.299Z,99130.59
2023-04-24T00:08:08.166Z,99136.06
2023-04-24T00:09:02.238Z,99128.28
2023-04-24T00:09:57.199Z,99122.38
2023-04-24T00:10:44.370Z,99139.41
2023-04-24T00:11:18.294Z,99129.09
2023-04-24T00:12:05.161Z,99125.72
2023-04-24T00:12:39.252Z,99115.63
2023-04-24T00:13:27.239Z,99127.44
2023-04-24T00:14:01.309Z,99124.47
2023-04-24T00:14:48.191Z,99126.78
2023-04-24T00:15:22.301Z,99113.72
2023-04-24T00:16:09.237Z,99123.63
2023-04-24T00:16:43.316Z,99120.06
2023-04-24T00:17:30.241Z,99121.50
2023-04-24T00:18:04.354Z,99123.19
2023-04-24T00:18:52.131Z,99121.94
2023-04-24T00:19:26.343Z,99099.22
2023-04-24T00:20:14.228Z,99122.56
2023-04-24T00:20:48.486Z,99130.78
2023-04-24T00:21:29.236Z,99120.44
2023-04-24T00:22:11.957Z,99116.66
2023-04-24T00:22:52.170Z,99128.88
2023-04-24T00:23:32.335Z,99117.91
2023-04-24T00:24:13.148Z,99125.72
2023-04-24T00:24:53.255Z,99112.44
2023-04-24T00:25:34.155Z,99120.84
2023-04-24T00:26:14.271Z,99118.75
2023-04-24T00:26:55.246Z,99115.38
2023-04-24T00:27:37.707Z,99113.50
2023-04-24T00:28:19.342Z,99091.66
2023-04-24T00:28:59.367Z,99112.47
2023-04-24T00:29:39.178Z,99111.19
2023-04-24T00:30:19.233Z,99107.00
2023-04-24T00:31:00.211Z,99110.16
2023-04-24T00:31:40.302Z,99108.44
2023-04-24T00:32:21.590Z,99095.44
2023-04-24T00:33:02.321Z,99109.09
2023-04-24T00:33:42.183Z,99096.69
2023-04-24T00:34:22.223Z,99097.94
2023-04-24T00:35:02.157Z,99088.47
2023-04-24T00:35:42.249Z,99101.94
2023-04-24T00:36:23.194Z,99100.44
2023-04-24T00:37:03.302Z,99102.09
2023-04-24T00:37:43.227Z,99083.19
2023-04-24T00:38:23.336Z,99094.13
2023-04-24T00:39:03.183Z,99095.78
2023-04-24T00:39:43.862Z,99094.56
2023-04-24T00:40:25.231Z,99093.28
2023-04-24T00:41:05.298Z,99097.50
2023-04-24T00:41:45.134Z,99093.28
2023-04-24T00:42:25.584Z,99089.94
2023-04-24T00:43:06.630Z,99090.34
2023-04-24T00:43:48.287Z,99090.97
2023-04-24T00:44:29.144Z,99088.25
2023-04-24T00:45:10.398Z,99096.47
2023-04-24T00:45:51.228Z,99088.25
2023-04-24T00:46:47.355Z,99081.06
2023-04-24T00:47:42.202Z,99070.78
2023-04-24T00:48:29.222Z,99072.69
2023-04-24T00:49:04.237Z,99079.19
2023-04-24T00:49:51.142Z,99085.09
2023-04-24T00:50:26.358Z,99085.31
2023-04-24T00:51:14.130Z,99081.94
2023-04-24T00:51:48.261Z,99071.84
2023-04-24T00:52:36.381Z,99072.03
2023-04-24T00:53:10.390Z,99085.72
2023-04-24T00:53:50.178Z,99083.63
2023-04-24T00:54:30.617Z,99075.22
2023-04-24T00:55:11.170Z,99082.38
2023-04-24T00:55:51.252Z,99083.25
2023-04-24T00:56:32.167Z,99079.66
2023-04-24T00:57:12.222Z,99078.59
2023-04-24T00:57:53.181Z,99083.25
2023-04-24T00:58:33.419Z,99069.75
2023-04-24T00:59:14.202Z,99076.47
2023-04-24T00:59:54.481Z,99074.38
2023-04-24T01:00:35.210Z,99070.19
2023-04-24T01:01:15.281Z,99069.97
2023-04-24T01:01:55.399Z,99077.34
2023-04-24T01:02:35.750Z,99062.63
2023-04-24T01:03:16.262Z,99070.59
2023-04-24T01:03:59.439Z,99076.72
2023-04-24T01:04:40.366Z,99075.66
2023-04-24T01:05:21.205Z,99075.66
2023-04-24T01:06:03.164Z,99066.81
2023-04-24T01:06:48.257Z,99072.28
2023-04-24T01:07:29.192Z,99071.03
2023-04-24T01:08:09.440Z,99067.25
2023-04-24T01:08:50.122Z,99073.13
2023-04-24T01:09:31.185Z,99074.81
2023-04-24T01:10:12.177Z,99064.72
2023-04-24T01:10:52.381Z,99067.44
2023-04-24T01:11:33.196Z,99066.19
2023-04-24T01:12:13.337Z,99064.09
2023-04-24T01:12:54.188Z,99066.41
2023-04-24T01:13:34.237Z,99068.91
2023-04-24T01:14:14.194Z,99070.59
2023-04-24T01:14:54.227Z,99042.44
2023-04-24T01:15:34.223Z,99061.34
2023-04-24T01:16:14.325Z,99063.91
2023-04-24T01:16:55.137Z,99066.81
2023-04-24T01:17:35.287Z,99056.91
2023-04-24T01:18:15.172Z,99055.03
2023-04-24T01:18:55.214Z,99043.47
2023-04-24T01:19:36.107Z,99060.91
2023-04-24T01:20:17.692Z,99046.63
2023-04-24T01:21:02.145Z,99059.25
2023-04-24T01:21:45.869Z,99061.34
2023-04-24T01:22:27.187Z,99063.69
2023-04-24T01:23:07.199Z,99065.16
2023-04-24T01:23:48.134Z,99069.78
2023-04-24T01:24:28.261Z,99052.31
2023-04-24T01:25:10.157Z,99063.47
2023-04-24T01:25:50.408Z,99067.88
2023-04-24T01:26:33.187Z,99063.69
2023-04-24T01:27:14.203Z,99061.78
2023-04-24T01:27:55.255Z,99055.28
2023-04-24T01:28:35.254Z,99045.81
2023-04-24T01:29:16.143Z,99060.53
2023-04-24T01:29:56.304Z,99059.69
2023-04-24T01:30:37.153Z,99056.34
2023-04-24T01:31:17.223Z,99042.66
2023-04-24T01:31:58.178Z,99058.22
2023-04-24T01:32:38.221Z,99058.88
2023-04-24T01:33:19.115Z,99047.53
2023-04-24T01:34:00.250Z,99053.00
2023-04-24T01:34:41.136Z,99064.34
2023-04-24T01:35:21.297Z,99060.16
2023-04-24T01:36:02.142Z,99048.78
2023-04-24T01:36:43.192Z,99059.31
2023-04-24T01:37:24.122Z,99052.19
2023-04-24T01:38:04.189Z,99047.09
2023-04-24T01:38:45.098Z,99055.50
2023-04-24T01:39:26.762Z,99053.00
2023-04-24T01:40:08.108Z,99038.91
2023-04-24T01:40:48.415Z,99050.69
2023-04-24T01:41:29.155Z,99058.47
2023-04-24T01:42:09.297Z,99041.88
2023-04-24T01:42:50.121Z,99054.91
2023-04-24T01:43:30.291Z,99048.38
2023-04-24T01:44:10.120Z,99037.03
2023-04-24T01:44:50.418Z,99038.28
2023-04-24T01:45:31.186Z,99050.66
2023-04-24T01:46:11.252Z,99053.59
2023-04-24T01:46:52.138Z,99048.78
2023-04-24T01:47:32.279Z,99051.72
2023-04-24T01:48:13.096Z,99045.00
2023-04-24T01:48:54.264Z,99046.25
2023-04-24T01:49:35.088Z,99050.03
2023-04-24T01:50:29.163Z,99052.53
2023-04-24T01:51:23.114Z,99054.66
2023-04-24T01:52:18.134Z,99047.53
2023-04-24T01:53:12.124Z,99048.34
2023-04-24T01:53:53.086Z,99050.88
2023-04-24T01:54:33.176Z,99057.19
2023-04-24T01:55:15.084Z,99050.50
2023-04-24T01:55:55.243Z,99055.53
2023-04-24T01:56:38.100Z,99039.34
2023-04-24T01:57:18.341Z,99049.63
2023-04-24T01:58:00.126Z,99054.03
2023-04-24T01:58:40.175Z,99045.44
2023-04-24T01:59:14.285Z,99035.78
2023-04-24T02:00:01.135Z,99048.38
2023-04-24T02:00:35.245Z,99036.63
2023-04-24T02:01:28.154Z,99055.94
2023-04-24T02:02:02.287Z,99039.50
2023-04-24T02:02:50.270Z,99047.94
2023-04-24T02:03:24.354Z,99051.09
2023-04-24T02:04:05.233Z,99044.34
2023-04-24T02:04:45.217Z,99045.84
2023-04-24T02:05:26.082Z,99050.69
2023-04-24T02:06:06.224Z,99047.09
2023-04-24T02:06:47.079Z,99042.06
2023-04-24T02:07:27.215Z,99045.41
2023-04-24T02:08:07.139Z,99039.91
2023-04-24T02:08:47.270Z,99025.63
2023-04-24T02:09:27.090Z,99043.06
2023-04-24T02:10:07.162Z,99036.56
2023-04-24T02:10:47.112Z,99036.78
2023-04-24T02:11:27.246Z,99038.66
2023-04-24T02:12:08.102Z,99015.53
2023-04-24T02:12:48.207Z,99035.72
2023-04-24T02:13:28.092Z,99035.72
2023-04-24T02:14:09.191Z,99028.78
2023-04-24T02:14:50.096Z,99032.34
2023-04-24T02:15:30.866Z,99039.72
2023-04-24T02:16:12.123Z,99036.97
2023-04-24T02:16:52.337Z,99022.28
2023-04-24T02:17:33.164Z,99019.75
2023-04-24T02:18:13.794Z,99021.00
2023-04-24T02:18:54.298Z,99026.69
2023-04-24T02:19:34.148Z,99014.25
2023-04-24T02:20:15.094Z,99026.47
2023-04-24T02:20:55.466Z,99026.47
2023-04-24T02:21:36.071Z,99019.94
2023-04-24T02:22:17.203Z,99017.44
2023-04-24T02:22:57.101Z,99022.88
2023-04-24T02:23:37.142Z,99022.28
2023-04-24T02:24:18.077Z,99003.53
2023-04-24T02:24:58.193Z,99015.53
2023-04-24T02:25:38.124Z,99021.00
2023-04-24T02:26:19.613Z,99017.22
2023-04-24T02:27:00.068Z,99001.88
2023-04-24T02:27:40.218Z,99007.13
2023-04-24T02:28:20.105Z,99008.38
2023-04-24T02:29:00.682Z,99013.41
2023-04-24T02:29:42.181Z,99015.91
2023-04-24T02:30:23.152Z,99011.50
2023-04-24T02:31:04.123Z,99006.25
2023-04-24T02:31:44.345Z,99018.41
2023-04-24T02:32:24.178Z,99018.84
2023-04-24T02:33:04.359Z,99014.63
2023-04-24T02:33:44.058Z,99009.19
2023-04-24T02:34:25.197Z,99012.13
2023-04-24T02:35:05.096Z,99001.84
2023-04-24T02:35:45.167Z,99004.53
2023-04-24T02:36:25.079Z,98999.13
2023-04-24T02:37:05.161Z,99009.22
2023-04-24T02:37:45.367Z,99008.78
2023-04-24T02:38:26.136Z,99006.91
2023-04-24T02:39:07.076Z,99003.78
2023-04-24T02:39:47.156Z,99014.25
2023-04-24T02:40:27.100Z,99007.13
2023-04-24T02:41:07.774Z,99000.81
2023-04-24T02:41:48.107Z,99003.31
2023-04-24T02:42:29.429Z,98997.47
2023-04-24T02:43:09.094Z,98994.50
2023-04-24T02:43:49.226Z,99004.53
2023-04-24T02:44:30.064Z,99000.56
2023-04-24T02:45:11.415Z,99007.88
2023-04-24T02:45:51.080Z,98994.44
2023-04-24T02:46:33.183Z,99010.00
2023-04-24T02:47:13.093Z,99005.38
2023-04-24T02:47:53.162Z,99010.84
2023-04-24T02:48:33.104Z,99013.78
2023-04-24T02:49:13.233Z,99010.44
2023-04-24T02:49:53.070Z,99012.50
2023-04-24T02:50:34.617Z,99002.84
2023-04-24T02:51:16.069Z,98978.81
2023-04-24T02:51:56.254Z,99015.03
2023-04-24T02:52:36.047Z,98992.75
2023-04-24T02:53:16.173Z,99008.31
2023-04-24T02:53:57.089Z,99005.97
2023-04-24T02:54:38.120Z,99005.50
2023-04-24T02:55:19.077Z,99003.59
2023-04-24T02:55:59.154Z,99005.03
2023-04-24T02:56:40.094Z,98993.91
2023-04-24T02:57:20.250Z,98983.84
2023-04-24T02:58:00.120Z,98996.94
2023-04-24T02:58:41.230Z,99006.94
2023-04-24T02:59:21.073Z,98999.44
2023-04-24T03:00:01.310Z,98995.22
2023-04-24T03:00:42.018Z,99003.22
2023-04-24T03:01:22.112Z,98994.59
2023-04-24T03:02:02.056Z,98999.84
2023-04-24T03:02:43.424Z,99000.22
2023-04-24T03:03:23.213Z,98997.56
2023-04-24T03:04:03.320Z,98993.59
2023-04-24T03:04:44.271Z,98989.59
2023-04-24T03:05:24.173Z,98998.59
2023-04-24T03:06:05.071Z,98984.97
2023-04-24T03:06:48.980Z,98994.44
2023-04-24T03:07:29.032Z,98991.47
2023-04-24T03:08:09.156Z,98997.84
2023-04-24T03:08:49.117Z,99000.56
2023-04-24T03:09:29.404Z,99002.47
2023-04-24T03:10:09.131Z,98978.06
2023-04-24T03:10:50.374Z,99003.53
2023-04-24T03:11:30.069Z,98991.09
2023-04-24T03:12:10.151Z,98995.50
2023-04-24T03:12:50.078Z,98991.94
2023-04-24T03:13:30.441Z,99004.06
2023-04-24T03:14:10.054Z,98991.94
2023-04-24T03:14:50.217Z,98997.00
2023-04-24T03:15:30.095Z,98994.06
2023-04-24T03:16:10.222Z,98989.88
2023-04-24T03:16:51.028Z,98994.47
2023-04-24T03:17:31.224Z,98993.22
2023-04-24T03:18:11.055Z,98985.03
2023-04-24T03:18:52.143Z,98992.13
2023-04-24T03:19:32.015Z,98990.66
2023-04-24T03:20:13.124Z,98997.16
2023-04-24T03:20:55.059Z,98991.72
2023-04-24T03:21:36.724Z,98999.06
2023-04-24T03:22:17.111Z,98994.44
2023-04-24T03:22:58.211Z,98996.09
2023-04-24T03:23:39.025Z,98983.50
2023-04-24T03:24:19.100Z,99002.81
2023-04-24T03:24:59.011Z,99001.56
2023-04-24T03:25:39.134Z,98999.38
2023-04-24T03:26:18.999Z,99005.66
2023-04-24T03:26:59.161Z,98998.53
2023-04-24T03:27:39.012Z,98974.34
2023-04-24T03:28:19.204Z,98987.84
2023-04-24T03:28:59.066Z,98996.66
2023-04-24T03:29:40.841Z,98996.53
2023-04-24T03:30:22.033Z,98998.44
2023-04-24T03:31:02.239Z,99004.06
2023-04-24T03:31:42.085Z,98994.03
2023-04-24T03:32:22.098Z,99002.00
2023-04-24T03:33:03.131Z,98989.59
2023-04-24T03:33:43.239Z,98986.25
2023-04-24T03:34:23.046Z,98993.38
2023-04-24T03:35:03.629Z,98980.56
2023-04-24T03:35:44.040Z,98999.03
2023-04-24T03:36:24.108Z,98997.50
2023-04-24T03:37:04.036Z,98994.97
2023-04-24T03:37:44.196Z,98982.56
2023-04-24T03:38:24.010Z,98996.19
2023-04-24T03:39:04.790Z,98993.69
2023-04-24T03:39:45.365Z,99002.78
2023-04-24T03:40:26.222Z,98996.94
2023-04-24T03:41:06.021Z,98999.88
2023-04-24T03:41:46.110Z,99007.47
2023-04-24T03:42:26.303Z,99004.53
2023-04-24T03:43:07.185Z,98989.13
2023-04-24T03:43:47.073Z,98982.63
2023-04-24T03:44:27.141Z,99003.91
2023-04-24T03:45:07.042Z,98998.22
2023-04-24T03:45:47.190Z,98998.84
2023-04-24T03:46:27.036Z,99002.00
2023-04-24T03:47:07.130Z,99004.91
2023-04-24T03:47:47.039Z,98984.28
2023-04-24T03:48:27.164Z,99002.38
2023-04-24T03:49:07.008Z,98998.16
2023-04-24T03:49:47.149Z,99007.03
2023-04-24T03:50:28.074Z,98995.69
2023-04-24T03:51:08.107Z,99008.06
2023-04-24T03:51:48.041Z,98993.59
2023-04-24T03:52:28.058Z,98991.19
2023-04-24T03:53:07.989Z,99004.91
2023-04-24T03:53:48.384Z,99011.25
2023-04-24T03:54:28.013Z,99002.56
2023-04-24T03:55:08.176Z,98996.28
2023-04-24T03:55:48.027Z,99003.22
2023-04-24T03:56:28.106Z,99000.50
2023-04-24T03:57:09.000Z,98999.28
2023-04-24T03:57:49.089Z,99006.63
2023-04-24T03:58:29.003Z,98994.44
2023-04-24T03:59:10.156Z,99007.03
2023-04-24T03:59:49.972Z,99004.06
2023-04-24T04:00:32.631Z,99004.53
2023-04-24T04:01:14.031Z,99002.22
2023-04-24T04:01:54.149Z,99004.13
2023-04-24T04:02:57.347Z,98979.94
2023-04-24T04:03:51.207Z,99001.63
2023-04-24T04:04:45.212Z,98980.63
2023-04-24T04:05:39.035Z,98988.59
2023-04-24T04:06:32.997Z,98992.00
2023-04-24T04:07:27.014Z,99002.72
2023-04-24T04:08:16.011Z,99003.75
2023-04-24T04:08:50.150Z,99001.22
2023-04-24T04:09:38.022Z,99001.41
2023-04-24T04:10:13.154Z,98997.00
2023-04-24T04:10:59.979Z,99005.00
2023-04-24T04:11:34.108Z,99003.53
2023-04-24T04:12:20.960Z,99000.56
2023-04-24T04:12:55.152Z,99006.63
2023-04-24T04:13:35.011Z,99001.50
2023-04-24T04:14:15.140Z,99008.69
2023-04-24T04:14:55.022Z,99004.84
2023-04-24T04:15:35.113Z,99007.34
2023-04-24T04:16:17.053Z,98992.69
2023-04-24T04:16:57.219Z,99003.59
2023-04-24T04:17:37.021Z,99006.53
2023-04-24T04:18:17.206Z,98997.69
2023-04-24T04:18:57.005Z,99005.91
2023-04-24T04:19:37.309Z,99000.69
2023-04-24T04:20:18.002Z,98992.69
2023-04-24T04:20:58.373Z,99007.44
2023-04-24T04:21:39.005Z,98979.66
2023-04-24T04:22:19.234Z,99005.13
2023-04-24T04:23:01.016Z,98999.44
2023-04-24T04:23:41.064Z,98993.59
2023-04-24T04:24:21.983Z,98960.09
2023-04-24T04:25:02.073Z,98998.44
2023-04-24T04:25:41.937Z,98999.66
2023-04-24T04:26:22.203Z,98994.97
2023-04-24T04:27:03.974Z,98995.19
2023-04-24T04:27:44.154Z,99001.44
2023-04-24T04:28:27.050Z,98983.34
2023-04-24T04:29:07.731Z,99001.47
2023-04-24T04:29:47.994Z,98990.75
2023-04-24T04:30:30.350Z,98997.69
2023-04-24T04:31:10.019Z,98989.41
2023-04-24T04:31:50.156Z,98995.28
2023-04-24T04:32:31.001Z,98986.69
2023-04-24T04:33:11.728Z,98982.28
2023-04-24T04:33:51.987Z,98989.25
2023-04-24T04:34:32.718Z,98992.56
2023-04-24T04:35:13.987Z,99002.66
2023-04-24T04:35:57.740Z,99004.75
2023-04-24T04:36:38.963Z,98985.47
2023-04-24T04:37:19.034Z,98993.66
2023-04-24T04:37:58.926Z,98986.25
2023-04-24T04:38:40.340Z,98994.66
2023-04-24T04:39:23.112Z,99006.22
2023-04-24T04:40:07.194Z,98998.00
2023-04-24T04:40:47.966Z,99002.03
2023-04-24T04:41:28.085Z,99001.75
2023-04-24T04:42:08.000Z,98996.69
2023-04-24T04:42:48.603Z,99004.09
2023-04-24T04:43:28.996Z,99009.31
2023-04-24T04:44:10.863Z,99012.69
2023-04-24T04:44:51.958Z,99007.00
2023-04-24T04:45:33.664Z,99015.41
2023-04-24T04:46:15.993Z,99011.81
2023-04-24T04:46:57.251Z,99004.22
2023-04-24T04:47:39.001Z,99006.53
2023-04-24T04:48:19.692Z,99005.25
2023-04-24T04:49:01.978Z,99021.22
2023-04-24T04:49:42.433Z,99007.94
2023-04-24T04:50:24.042Z,99009.81
2023-04-24T04:51:04.041Z,99003.13
2023-04-24T04:51:44.954Z,99010.09
2023-04-24T04:52:26.833Z,98992.78
2023-04-24T04:53:07.969Z,99000.59
2023-04-24T04:53:48.056Z,99006.53
2023-04-24T04:54:27.937Z,99009.66
2023-04-24T04:55:08.645Z,98997.91
2023-04-24T04:55:48.934Z,99008.06
2023-04-24T04:56:29.038Z,99006.59
2023-04-24T04:57:09.981Z,99008.91
2023-04-24T04:57:50.086Z,99008.91
2023-04-24T04:58:30.918Z,99011.03
2023-04-24T04:59:12.159Z,99013.97
2023-04-24T04:59:51.951Z,99010.97
2023-04-24T05:00:36.559Z,99008.44
2023-04-24T05:01:17.981Z,98995.38
2023-04-24T05:01:58.045Z,99007.81
2023-04-24T05:02:38.040Z,99009.72
2023-04-24T05:03:21.412Z,98980.53
2023-04-24T05:04:02.057Z,99001.13
2023-04-24T05:04:42.292Z,99002.41
2023-04-24T05:05:24.933Z,98977.63
2023-04-24T05:06:06.257Z,99008.97
2023-04-24T05:06:45.953Z,99001.00
2023-04-24T05:07:26.179Z,99001.44
2023-04-24T05:08:08.955Z,98984.59
2023-04-24T05:08:52.294Z,99002.47
2023-04-24T05:09:34.964Z,99015.28
2023-04-24T05:10:16.079Z,99007.94
2023-04-24T05:10:55.989Z,99011.53
2023-04-24T05:11:36.136Z,99002.53
2023-04-24T05:12:16.943Z,99010.09
2023-04-24T05:12:57.064Z,98991.41
2023-04-24T05:13:41.136Z,99009.06
2023-04-24T05:14:23.107Z,98999.38
2023-04-24T05:15:02.931Z,98997.31
2023-04-24T05:15:43.303Z,99005.34
2023-04-24T05:16:22.915Z,99004.50
2023-04-24T05:17:03.872Z,99005.34
2023-04-24T05:17:44.975Z,98995.19
2023-04-24T05:18:24.978Z,99001.06
2023-04-24T05:19:04.981Z,99004.06
2023-04-24T05:19:45.457Z,99009.06
2023-04-24T05:20:25.988Z,98991.06
2023-04-24T05:21:06.190Z,99004.53
2023-04-24T05:21:46.886Z,99002.63
2023-04-24T05:22:26.991Z,98998.66
2023-04-24T05:23:06.892Z,98994.66
2023-04-24T05:23:46.986Z,99002.47
2023-04-24T05:24:27.923Z,98994.28
2023-04-24T05:25:07.986Z,98999.13
2023-04-24T05:25:48.907Z,98994.91
2023-04-24T05:26:30.010Z,99003.09
2023-04-24T05:27:11.921Z,98998.69
2023-04-24T05:27:52.012Z,98989.03
2023-04-24T05:28:35.902Z,98988.63
2023-04-24T05:29:16.100Z,98998.31
2023-04-24T05:29:56.913Z,98994.53
2023-04-24T05:30:37.382Z,98997.03
2023-04-24T05:31:16.886Z,98986.72
2023-04-24T05:31:57.013Z,99004.22
2023-04-24T05:32:37.005Z,99001.47
2023-04-24T05:33:17.114Z,98993.28
2023-04-24T05:33:57.973Z,98983.81
2023-04-24T05:34:38.025Z,98997.47
2023-04-24T05:35:17.951Z,98985.28
2023-04-24T05:35:58.679Z,98995.34
2023-04-24T05:36:39.920Z,99001.25
2023-04-24T05:37:20.030Z,98997.06
2023-04-24T05:38:00.923Z,98990.94
2023-04-24T05:38:41.007Z,99001.66
2023-04-24T05:39:22.924Z,98994.34
2023-04-24T05:40:05.503Z,98984.88
2023-04-24T05:40:47.940Z,98993.69
2023-04-24T05:41:28.008Z,99004.81
2023-04-24T05:42:11.390Z,99001.47
2023-04-24T05:42:52.035Z,99003.38
2023-04-24T05:43:32.860Z,99008.00
2023-04-24T05:44:12.991Z,98990.31
2023-04-24T05:44:53.713Z,99004.63
2023-04-24T05:45:36.286Z,98996.66
2023-04-24T05:46:16.991Z,99004.00
2023-04-24T05:46:57.723Z,99001.28
2023-04-24T05:47:37.970Z,99001.69
2023-04-24T05:48:18.024Z,98996.22
2023-04-24T05:48:57.887Z,99007.38
2023-04-24T05:49:38.208Z,98992.88
2023-04-24T05:50:19.913Z,99006.09
2023-04-24T05:51:00.071Z,98983.41
2023-04-24T05:51:39.924Z,99002.31
2023-04-24T05:52:20.029Z,99002.13
2023-04-24T05:53:00.942Z,99008.00
2023-04-24T05:53:40.986Z,99007.16
2023-04-24T05:54:21.892Z,99006.72
2023-04-24T05:55:02.037Z,99000.00
2023-04-24T05:55:42.896Z,98993.69
2023-04-24T05:56:23.975Z,98998.31
2023-04-24T05:57:03.902Z,99002.53
2023-04-24T05:57:43.988Z,99003.78
2023-04-24T05:58:24.923Z,98994.53
2023-04-24T05:59:05.076Z,98992.41
2023-04-24T05:59:45.934Z,99002.31
2023-04-24T06:00:26.056Z,98998.53
2023-04-24T06:01:08.877Z,98994.53
2023-04-24T06:01:48.954Z,98998.53
2023-04-24T06:02:30.067Z,99003.78
2023-04-24T06:03:10.223Z,99004.00
2023-04-24T06:03:49.954Z,98996.00
2023-04-24T06:04:30.280Z,98993.28
2023-04-24T06:05:12.080Z,98985.72
2023-04-24T06:05:52.383Z,98999.97
2023-04-24T06:06:32.899Z,98995.78
2023-04-24T06:07:13.031Z,98999.16
2023-04-24T06:07:53.886Z,99004.22
2023-04-24T06:08:35.303Z,98994.13
2023-04-24T06:09:15.904Z,98994.34
2023-04-24T06:09:56.210Z,98995.78
2023-04-24T06:10:36.859Z,98988.66
2023-04-24T06:11:17.235Z,99000.00
2023-04-24T06:11:59.930Z,99009.66
2023-04-24T06:12:39.976Z,98991.16
2023-04-24T06:13:20.973Z,98999.81
2023-04-24T06:14:00.998Z,99003.81
2023-04-24T06:14:41.925Z,99005.03
2023-04-24T06:15:22.069Z,99009.25
2023-04-24T06:16:01.994Z,98992.00
2023-04-24T06:16:41.938Z,98996.22
2023-04-24T06:17:23.001Z,99005.88
2023-04-24T06:18:02.997Z,99008.00
2023-04-24T06:18:42.891Z,98996.44
2023-04-24T06:19:22.995Z,99004.88
2023-04-24T06:20:02.984Z,99001.06
2023-04-24T06:20:42.987Z,99003.78
2023-04-24T06:21:23.854Z,98992.22
2023-04-24T06:22:04.006Z,99001.28
2023-04-24T06:22:43.898Z,98999.56
2023-04-24T06:23:23.924Z,98984.84
2023-04-24T06:24:03.943Z,98998.31
2023-04-24T06:24:44.053Z,98997.28
2023-04-24T06:25:23.844Z,99005.03
2023-04-24T06:26:03.980Z,98991.38
2023-04-24T06:26:43.886Z,99002.13
2023-04-24T06:27:25.108Z,98998.13
2023-04-24T06:28:05.875Z,98997.94
2023-04-24T06:28:46.029Z,98996.22
2023-04-24T06:29:25.866Z,98984.03
2023-04-24T06:30:05.938Z,98988.22
2023-04-24T06:30:45.868Z,98992.03
2023-04-24T06:31:26.006Z,98983.00
2023-04-24T06:32:05.994Z,98998.56
2023-04-24T06:32:46.124Z,98969.94
2023-04-24T06:33:25.891Z,99000.00
2023-04-24T06:34:06.038Z,98993.72
2023-04-24T06:34:45.902Z,98993.09
2023-04-24T06:35:25.955Z,98998.13
2023-04-24T06:36:05.850Z,98977.53
2023-04-24T06:36:46.003Z,98990.78
2023-04-24T06:37:27.862Z,98991.63
2023-04-24T06:38:07.952Z,98991.63
2023-04-24T06:38:47.871Z,98994.13
2023-04-24T06:39:28.089Z,98983.59
2023-04-24T06:40:08.736Z,99002.94
2023-04-24T06:40:49.166Z,99001.28
2023-04-24T06:41:28.864Z,98992.25
2023-04-24T06:42:10.426Z,98997.47
2023-04-24T06:42:51.846Z,99000.41
2023-04-24T06:43:32.113Z,98989.69
2023-04-24T06:44:12.869Z,98998.34
2023-04-24T06:44:52.943Z,98997.47
2023-04-24T06:45:32.874Z,98989.28
2023-04-24T06:46:13.173Z,98989.94
2023-04-24T06:46:53.838Z,98988.00
2023-04-24T06:47:34.080Z,98990.13
2023-04-24T06:48:13.845Z,98986.56
2023-04-24T06:48:56.660Z,98997.25
2023-04-24T06:49:37.853Z,98988.63
2023-04-24T06:50:18.067Z,98986.31
2023-04-24T06:50:58.897Z,98986.13
2023-04-24T06:51:38.980Z,98998.09
2023-04-24T06:52:18.840Z,98971.84
2023-04-24T06:52:58.975Z,98992.63
2023-04-24T06:53:38.837Z,98990.53
2023-04-24T06:54:19.033Z,98993.47
2023-04-24T06:54:59.857Z,98990.13
2023-04-24T06:55:39.921Z,98995.34
2023-04-24T06:56:19.857Z,98995.78
2023-04-24T06:57:01.825Z,98998.72
2023-04-24T06:57:41.848Z,98989.94
2023-04-24T06:58:21.937Z,98998.97
2023-04-24T06:59:02.845Z,98995.38
2023-04-24T06:59:43.190Z,98995.81
2023-04-24T07:00:24.817Z,98994.06
2023-04-24T07:01:04.947Z,98973.91
2023-04-24T07:01:44.878Z,98977.69
2023-04-24T07:02:25.084Z,98990.72
2023-04-24T07:03:05.986Z,98990.34
2023-04-24T07:03:46.190Z,98965.13
2023-04-24T07:04:26.931Z,98986.53
2023-04-24T07:05:09.304Z,98998.06
2023-04-24T07:05:49.900Z,98985.66
2023-04-24T07:06:31.540Z,98983.97
2023-04-24T07:07:13.905Z,98963.59
2023-04-24T07:07:54.945Z,98987.34
2023-04-24T07:08:35.894Z,98979.41
2023-04-24T07:09:17.152Z,98979.38
2023-04-24T07:09:57.853Z,98983.16
2023-04-24T07:10:37.904Z,98984.00
2023-04-24T07:11:18.832Z,98980.63
2023-04-24T07:12:01.936Z,98985.25
2023-04-24T07:12:42.843Z,98968.00
2023-04-24T07:13:22.957Z,98981.28
2023-04-24T07:14:03.850Z,98973.72
2023-04-24T07:14:44.986Z,98971.81
2023-04-24T07:15:25.811Z,98978.13
2023-04-24T07:16:06.015Z,98968.88
2023-04-24T07:16:46.841Z,98974.34
2023-04-24T07:17:26.949Z,98976.25
2023-04-24T07:18:07.959Z,98963.84
2023-04-24T07:18:47.938Z,98961.31
2023-04-24T07:19:28.830Z,98966.19
2023-04-24T07:20:11.282Z,98943.28
2023-04-24T07:20:51.843Z,98959.22
2023-04-24T07:21:32.661Z,98957.53
2023-04-24T07:22:13.801Z,98963.44
2023-04-24T07:22:54.955Z,98958.00
2023-04-24T07:23:35.894Z,98931.94
2023-04-24T07:24:16.100Z,98952.50
2023-04-24T07:24:55.866Z,98951.84
2023-04-24T07:25:35.926Z,98939.06
2023-04-24T07:26:15.827Z,98959.66
2023-04-24T07:26:56.320Z,98964.47
2023-04-24T07:27:36.844Z,98962.00
2023-04-24T07:28:18.546Z,98965.56
2023-04-24T07:28:58.870Z,98947.47
2023-04-24T07:29:39.260Z,98960.06
2023-04-24T07:30:19.828Z,98957.56
2023-04-24T07:31:00.839Z,98949.56
2023-04-24T07:31:41.843Z,98964.69
2023-04-24T07:32:35.836Z,98966.38
2023-04-24T07:33:29.818Z,98941.38
2023-04-24T07:34:16.813Z,98966.16
2023-04-24T07:34:50.892Z,98954.41
2023-04-24T07:35:37.814Z,98975.22
2023-04-24T07:36:16.435Z,98973.94
2023-04-24T07:37:03.838Z,98965.09
2023-04-24T07:37:37.879Z,98955.66
2023-04-24T07:38:28.774Z,98965.53
2023-04-24T07:39:03.076Z,98972.06
2023-04-24T07:39:44.069Z,98972.09
2023-04-24T07:40:25.025Z,98978.56
2023-04-24T07:41:04.802Z,98976.50
2023-04-24T07:41:44.893Z,98973.53
2023-04-24T07:42:24.816Z,98961.75
2023-04-24T07:43:04.922Z,98980.25
2023-04-24T07:43:45.819Z,98971.44
2023-04-24T07:44:26.121Z,98961.75
2023-04-24T07:45:06.858Z,98969.75
2023-04-24T07:45:47.927Z,98972.09
2023-04-24T07:46:28.849Z,98973.97
2023-04-24T07:47:08.860Z,98976.91
2023-04-24T07:47:51.878Z,98973.94
2023-04-24T07:48:32.886Z,98986.13
2023-04-24T07:49:14.166Z,98980.22
2023-04-24T07:49:54.936Z,98971.81
2023-04-24T07:50:34.870Z,98972.63
2023-04-24T07:51:14.884Z,98980.25
2023-04-24T07:51:56.807Z,98983.81
2023-04-24T07:52:37.009Z,98978.34
2023-04-24T07:53:17.799Z,98978.97
2023-04-24T07:53:57.918Z,98984.00
2023-04-24T07:54:37.817Z,98968.47
2023-04-24T07:55:18.020Z,98982.34
2023-04-24T07:55:58.865Z,98977.91
2023-04-24T07:56:40.343Z,98964.84
2023-04-24T07:57:21.814Z,98986.13
2023-04-24T07:58:01.921Z,98982.97
2023-04-24T07:58:42.803Z,98977.31
2023-04-24T07:59:22.904Z,98980.66
2023-04-24T08:00:03.820Z,98973.94
2023-04-24T08:00:43.905Z,98977.69
2023-04-24T08:01:23.792Z,98984.41
2023-04-24T08:02:03.938Z,98980.59